Latest Weather Observations for Hillarys Point Boat Harbour

IDW60801

Issued at 9:53 pm WST Wednesday 8 July 2020 (issued every 10 minutes, with the page automatically refreshed every 10 minutes)

About weather observations | Map of weather stations | Latest weather observations for WA | Other Formats
Station Details ID: 009265 Name: HILLARYS BOAT HARBOUR NTC AWS Lat: -31.83 Lon: 115.74 Height: 0.0 m
Data from the previous 72 hours. | See also: Recent months for locations in Western Australia
Date/Time
WST
Temp
°C
App
Temp
°C
Dew
Point
°C
Rel
Hum
%
Delta-T
°C
Wind Press
QNH
hPa
Press
MSL
hPa
Rain since
9am
mm
Dir  Spd
km/h
Gust
km/h
Spd
kts
Gust
kts
08/09:30pm 13.1 - - - - E 4 6 2 3 1023.8 1023.8 -
08/09:00pm 12.9 - - - - CALM 0 2 0 1 1023.7 1023.7 -
08/08:30pm 13.1 - - - - CALM 0 4 0 2 1023.6 1023.6 -
08/08:00pm 13.7 - - - - E 4 9 2 5 1023.2 1023.2 -
08/07:30pm 14.7 - - - - SSE 9 20 5 11 1023.3 1023.3 -
08/07:00pm 15.1 - - - - SSE 9 17 5 9 1023.2 1023.2 -
08/06:30pm 15.1 - - - - SE 6 13 3 7 1023.0 1023.0 -
08/06:00pm 15.1 - - - - SE 2 9 1 5 1022.8 1022.8 -
08/05:30pm 15.1 - - - - E 2 6 1 3 1022.7 1022.7 -
08/05:00pm 15.6 - - - - ESE 2 9 1 5 1022.8 1022.8 -
08/04:30pm 15.6 - - - - SSE 6 11 3 6 1022.7 1022.7 -
08/04:00pm 15.7 - - - - SSE 9 17 5 9 1022.6 1022.6 -
08/03:30pm 16.0 - - - - SSE 9 17 5 9 1022.3 1022.3 -
08/03:00pm 16.1 - - - - SSW 6 13 3 7 1022.2 1022.2 -
08/02:30pm 16.0 - - - - E 4 9 2 5 1022.2 1022.2 -
08/02:00pm 14.2 - - - - SE 6 13 3 7 1022.6 1022.6 -
08/01:30pm 13.7 - - - - S 9 17 5 9 1023.1 1023.1 -
08/01:00pm 14.3 - - - - SW 7 17 4 9 1023.2 1023.2 -
08/12:30pm 14.0 - - - - WSW 11 19 6 10 1023.6 1023.6 -
08/12:00pm 16.1 - - - - WNW 6 11 3 6 1023.7 1023.7 -
08/11:30am 16.4 - - - - NW 6 9 3 5 1024.0 1024.0 -
08/11:00am 15.7 - - - - NW 6 9 3 5 1024.2 1024.2 -
08/10:30am 16.0 - - - - N 4 9 2 5 1024.4 1024.4 -
08/10:00am 15.4 - - - - NNE 7 13 4 7 1024.3 1024.3 -
08/09:30am 14.6 - - - - NE 7 13 4 7 1024.1 1024.1 -
08/09:00am 13.9 - - - - NE 6 11 3 6 1024.1 1024.1 -
08/08:30am 13.2 - - - - NNE 7 11 4 6 1023.9 1023.9 -
08/08:00am 12.7 - - - - N 6 9 3 5 1023.6 1023.6 -
08/07:30am 12.5 - - - - NE 6 11 3 6 1023.1 1023.1 -
08/07:00am 12.8 - - - - ENE 9 15 5 8 1022.7 1022.7 -
08/06:30am 12.8 - - - - NE 6 9 3 5 1022.7 1022.7 -
08/06:00am 12.8 - - - - ENE 9 13 5 7 1022.4 1022.4 -
08/05:30am 13.3 - - - - NE 6 11 3 6 1022.4 1022.4 -
08/05:00am 13.4 - - - - ENE 7 11 4 6 1022.3 1022.3 -
08/04:30am 13.6 - - - - NE 2 6 1 3 1022.3 1022.3 -
08/04:00am 13.9 - - - - ENE 7 11 4 6 1022.2 1022.2 -
08/03:30am 14.6 - - - - ENE 6 7 3 4 1022.2 1022.2 -
08/03:00am 13.6 - - - - ENE 7 11 4 6 1022.1 1022.1 -
08/02:30am 13.8 - - - - ENE 9 15 5 8 1022.0 1022.0 -
08/02:00am 14.6 - - - - SSE 7 20 4 11 1022.1 1022.1 -
08/01:30am 16.9 - - - - SSW 22 35 12 19 1021.8 1021.8 -
08/01:00am 16.9 - - - - SW 22 35 12 19 1021.7 1021.7 -
08/12:30am 16.4 - - - - SSW 17 30 9 16 1021.7 1021.7 -
08/12:00am 14.9 - - - - SSW 22 41 12 22 1021.9 1021.9 -
 
Date/Time
WST
Temp
°C
App
Temp
°C
Dew
Point
°C
Rel
Hum
%
Delta-T
°C
Wind Press
QNH
hPa
Press
MSL
hPa
Rain since
9am
mm
Dir  Spd
km/h
Gust
km/h
Spd
kts
Gust
kts
07/11:30pm 14.3 - - - - SW 15 26 8 14 1022.0 1022.0 -
07/11:00pm 15.5 - - - - W 28 48 15 26 1022.0 1022.0 -
07/10:58pm 15.5 - - - - W 26 48 14 26 1022.1 1022.1 -
07/10:30pm 15.6 - - - - WSW 26 43 14 23 1022.0 1022.0 -
07/10:00pm 17.3 - - - - W 19 28 10 15 1021.7 1021.7 -
07/09:30pm 17.2 - - - - W 17 28 9 15 1022.0 1022.0 -
07/09:00pm 17.1 - - - - W 19 30 10 16 1021.9 1021.9 -
07/08:30pm 16.8 - - - - W 17 26 9 14 1021.9 1021.9 -
07/08:00pm 16.9 - - - - W 20 33 11 18 1021.8 1021.8 -
07/07:30pm 16.6 - - - - W 19 32 10 17 1021.8 1021.8 -
07/07:00pm 16.2 - - - - W 24 39 13 21 1021.7 1021.7 -
07/06:30pm 16.2 - - - - W 15 26 8 14 1021.5 1021.5 -
07/06:00pm 15.7 - - - - WNW 20 37 11 20 1021.4 1021.4 -
07/05:30pm 16.5 - - - - W 20 35 11 19 1021.1 1021.1 -
07/05:00pm 16.5 - - - - WNW 17 28 9 15 1021.3 1021.3 -
07/04:30pm 16.4 - - - - WNW 19 32 10 17 1021.5 1021.5 -
07/04:00pm 16.3 - - - - WSW 24 39 13 21 1021.6 1021.6 -
07/03:30pm 15.2 - - - - WSW 15 20 8 11 1021.5 1021.5 -
07/03:00pm 15.6 - - - - WSW 22 32 12 17 1021.5 1021.5 -
07/02:30pm 14.9 - - - - W 19 30 10 16 1021.5 1021.5 -
07/02:00pm 15.5 - - - - WNW 7 13 4 7 1021.5 1021.5 -
07/01:30pm 15.7 - - - - WSW 15 22 8 12 1021.5 1021.5 -
07/01:00pm 16.2 - - - - WNW 13 20 7 11 1021.8 1021.8 -
07/12:30pm 15.8 - - - - WNW 11 20 6 11 1022.1 1022.1 -
07/12:00pm 16.1 - - - - W 19 32 10 17 1022.4 1022.4 -
07/11:30am 16.2 - - - - WSW 26 37 14 20 1022.9 1022.9 -
07/11:00am 16.3 - - - - W 13 20 7 11 1023.0 1023.0 -
07/10:30am 15.5 - - - - W 24 35 13 19 1023.2 1023.2 -
07/10:00am 16.1 - - - - WSW 22 32 12 17 1023.0 1023.0 -
07/09:30am 16.4 - - - - WSW 15 30 8 16 1022.8 1022.8 -
07/09:00am 16.1 - - - - W 15 22 8 12 1022.6 1022.6 -
07/08:30am 15.6 - - - - WSW 26 35 14 19 1022.3 1022.3 -
07/08:00am 15.6 - - - - WSW 24 37 13 20 1022.1 1022.1 -
07/07:30am 15.9 - - - - WSW 24 35 13 19 1021.8 1021.8 -
07/07:00am 15.5 - - - - SW 22 41 12 22 1021.5 1021.5 -
07/06:30am 16.1 - - - - WSW 26 37 14 20 1021.2 1021.2 -
07/06:00am 16.1 - - - - WSW 35 46 19 25 1020.8 1020.8 -
07/05:51am 16.4 - - - - WSW 22 43 12 23 1020.7 1020.7 -
07/05:30am 15.7 - - - - WSW 9 19 5 10 1020.7 1020.7 -
07/05:00am 16.0 - - - - W 17 26 9 14 1020.5 1020.5 -
07/04:30am 15.4 - - - - W 26 44 14 24 1020.7 1020.7 -
07/04:00am 15.6 - - - - W 22 41 12 22 1020.6 1020.6 -
07/03:50am 15.3 - - - - W 28 46 15 25 1020.7 1020.7 -
07/03:30am 16.9 - - - - WSW 19 28 10 15 1020.4 1020.4 -
07/03:00am 17.0 - - - - W 22 33 12 18 1020.2 1020.2 -
07/02:30am 17.2 - - - - W 26 43 14 23 1020.1 1020.1 -
07/02:00am 16.2 - - - - SW 22 35 12 19 1020.3 1020.3 -
07/01:49am 15.6 - - - - WSW 39 57 21 31 1020.4 1020.4 -
07/01:30am 16.3 - - - - WSW 35 48 19 26 1020.1 1020.1 -
07/01:25am 16.8 - - - - WSW 28 48 15 26 1020.1 1020.1 -
07/01:00am 17.1 - - - - W 20 35 11 19 1019.9 1019.9 -
07/12:30am 17.2 - - - - W 22 35 12 19 1020.1 1020.1 -
07/12:00am 17.0 - - - - WSW 24 41 13 22 1020.1 1020.1 -
 
Date/Time
WST
Temp
°C
App
Temp
°C
Dew
Point
°C
Rel
Hum
%
Delta-T
°C
Wind Press
QNH
hPa
Press
MSL
hPa
Rain since
9am
mm
Dir  Spd
km/h
Gust
km/h
Spd
kts
Gust
kts
06/11:30pm 17.1 - - - - W 22 39 12 21 1020.3 1020.3 -
06/11:00pm 17.2 - - - - W 26 43 14 23 1020.3 1020.3 -
06/10:30pm 17.3 - - - - W 24 39 13 21 1020.2 1020.2 -
06/10:10pm 16.9 - - - - W 30 48 16 26 1020.1 1020.1 -
06/10:00pm 17.4 - - - - W 24 41 13 22 1020.1 1020.1 -
06/09:30pm 17.4 - - - - W 28 48 15 26 1020.0 1020.0 -
06/09:06pm 17.3 - - - - W 28 46 15 25 1020.0 1020.0 -
06/09:00pm 17.2 - - - - W 26 46 14 25 1020.0 1020.0 -
06/08:31pm 17.6 - - - - W 28 48 15 26 1019.9 1019.9 -
06/08:30pm 17.7 - - - - W 30 48 16 26 1019.9 1019.9 -
06/08:12pm 17.5 - - - - W 30 48 16 26 1019.8 1019.8 -
06/08:00pm 17.4 - - - - W 30 48 16 26 1019.7 1019.7 -
06/07:42pm 17.3 - - - - W 28 48 15 26 1019.6 1019.6 -
06/07:30pm 17.3 - - - - W 30 46 16 25 1019.5 1019.5 -
06/07:00pm 17.5 - - - - W 32 48 17 26 1019.3 1019.3 -
06/06:33pm 17.3 - - - - W 28 46 15 25 1019.0 1019.0 -
06/06:30pm 17.2 - - - - W 30 46 16 25 1019.0 1019.0 -
06/06:00pm 17.4 - - - - WNW 28 50 15 27 1018.6 1018.6 -
06/05:30pm 17.4 - - - - WNW 30 52 16 28 1018.2 1018.2 -
06/05:01pm 17.1 - - - - WNW 32 52 17 28 1017.9 1017.9 -
06/05:00pm 17.1 - - - - WNW 33 52 18 28 1017.9 1017.9 -
06/04:30pm 16.4 - - - - W 32 52 17 28 1017.8 1017.8 -
06/04:13pm 17.3 - - - - WNW 28 57 15 31 1017.7 1017.7 -
06/04:00pm 17.7 - - - - WNW 22 41 12 22 1017.4 1017.4 -
06/03:30pm 17.1 - - - - W 24 44 13 24 1017.2 1017.2 -
06/03:00pm 16.7 - - - - WNW 28 52 15 28 1017.1 1017.1 -
06/02:30pm 16.4 - - - - WNW 28 43 15 23 1016.9 1016.9 -
06/02:10pm 16.1 - - - - WNW 26 50 14 27 1016.8 1016.8 -
06/02:00pm 17.6 - - - - NW 28 43 15 23 1016.6 1016.6 -
06/01:30pm 17.7 - - - - NW 24 43 13 23 1016.8 1016.8 -
06/01:00pm 17.8 - - - - NW 22 41 12 22 1016.9 1016.9 -
06/12:34pm 17.8 - - - - WNW 28 46 15 25 1017.0 1017.0 -
06/12:30pm 17.9 - - - - WNW 26 46 14 25 1017.0 1017.0 -
06/12:04pm 17.7 - - - - NW 28 50 15 27 1017.1 1017.1 -
06/12:00pm 17.9 - - - - NW 26 50 14 27 1017.1 1017.1 -
06/11:58am 18.0 - - - - NW 28 50 15 27 1017.1 1017.1 -
06/11:30am 17.7 - - - - WNW 24 50 13 27 1017.3 1017.3 -
06/11:00am 17.9 - - - - WNW 22 44 12 24 1017.2 1017.2 -
06/10:30am 18.0 - - - - NW 24 44 13 24 1017.2 1017.2 -
06/10:00am 18.0 - - - - NW 22 41 12 22 1017.1 1017.1 -
06/09:49am 18.0 - - - - NW 28 48 15 26 1017.2 1017.2 -
06/09:30am 17.7 - - - - NW 26 50 14 27 1016.8 1016.8 -
06/09:00am 17.4 - - - - WNW 24 44 13 24 1016.7 1016.7 -
06/08:30am 17.5 - - - - NW 30 50 16 27 1016.1 1016.1 -
06/08:22am 17.5 - - - - NW 28 50 15 27 1016.0 1016.0 -
06/08:00am 17.6 - - - - WNW 22 48 12 26 1015.7 1015.7 -
06/07:30am 17.5 - - - - NW 20 39 11 21 1015.2 1015.2 -
06/07:00am 15.8 - - - - NNW 20 39 11 21 1015.0 1015.0 -
06/06:30am 16.1 - - - - WNW 17 32 9 17 1014.8 1014.8 -
06/06:00am 16.8 - - - - WNW 20 37 11 20 1014.6 1014.6 -
06/05:30am 16.7 - - - - WNW 15 30 8 16 1014.3 1014.3 -
06/05:00am 16.1 - - - - WNW 22 39 12 21 1014.5 1014.5 -
06/04:30am 17.0 - - - - WNW 15 30 8 16 1014.4 1014.4 -
06/04:00am 17.0 - - - - WNW 19 32 10 17 1014.3 1014.3 -
06/03:30am 17.1 - - - - WNW 20 33 11 18 1014.3 1014.3 -
06/03:00am 16.6 - - - - WNW 24 41 13 22 1014.3 1014.3 -
06/02:30am 17.5 - - - - NW 20 33 11 18 1014.3 1014.3 -
06/02:00am 17.5 - - - - NW 20 37 11 20 1014.3 1014.3 -
06/01:30am 17.4 - - - - NW 22 43 12 23 1014.3 1014.3 -
06/01:00am 15.8 - - - - NE 7 11 4 6 1014.2 1014.2 -
06/12:30am 16.0 - - - - NNE 7 9 4 5 1014.9 1014.9 -
06/12:00am 16.9 - - - - N 6 9 3 5 1014.8 1014.8 -
 
Date/Time
WST
Temp
°C
App
Temp
°C
Dew
Point
°C
Rel
Hum
%
Delta-T
°C
Wind Press
QNH
hPa
Press
MSL
hPa
Rain since
9am
mm
Dir  Spd
km/h
Gust
km/h
Spd
kts
Gust
kts
05/11:30pm 17.6 - - - - NW 6 15 3 8 1015.0 1015.0 -
05/11:00pm 16.8 - - - - N 6 9 3 5 1015.5 1015.5 -
05/10:30pm 17.2 - - - - W 11 20 6 11 1015.8 1015.8 -
05/10:00pm 17.3 - - - - WSW 28 41 15 22 1015.7 1015.7 -

Other formats

Comma delimited format used in spreadsheet applications
http://www.bom.gov.au/fwo/IDW60801/IDW60801.95605.axf

JavaScript Object Notation format (JSON) in row-major order
http://www.bom.gov.au/fwo/IDW60801/IDW60801.95605.json

Data quality

Most of these data are generated automatically and are frequently updated. Quality checks on data are not normally performed. It is possible for incorrect values to appear. Refer to information at About Latest Weather Observations and please check the disclaimer before using these data.